createdAt,value
2022-08-01T00:00:10.135Z,18.40
2022-08-01T00:02:41.687Z,18.40
2022-08-01T00:05:09.631Z,18.30
2022-08-01T00:07:37.177Z,18.40
2022-08-01T00:10:05.750Z,18.40
2022-08-01T00:12:33.042Z,18.40
2022-08-01T00:15:00.081Z,18.40
2022-08-01T00:17:27.323Z,18.30
2022-08-01T00:19:54.162Z,18.30
2022-08-01T00:22:21.222Z,18.30
2022-08-01T00:24:48.070Z,18.30
2022-08-01T00:27:15.019Z,18.30
2022-08-01T00:30:10.427Z,18.30
2022-08-01T00:32:33.168Z,18.30
2022-08-01T00:34:59.975Z,18.20
2022-08-01T00:37:26.964Z,18.20
2022-08-01T00:39:53.886Z,18.20
2022-08-01T00:42:21.242Z,18.30
2022-08-01T00:44:48.138Z,18.20
2022-08-01T00:47:15.016Z,18.20
2022-08-01T00:49:41.953Z,18.20
2022-08-01T00:52:10.024Z,18.10
2022-08-01T00:54:37.077Z,18.20
2022-08-01T00:57:05.470Z,18.20
2022-08-01T00:59:37.626Z,18.20
2022-08-01T01:02:15.398Z,18.20
2022-08-01T01:04:43.683Z,18.20
2022-08-01T01:07:30.761Z,18.20
2022-08-01T01:10:06.208Z,18.20
2022-08-01T01:12:38.695Z,18.20
2022-08-01T01:15:11.914Z,18.20
2022-08-01T01:17:53.152Z,18.20
2022-08-01T01:20:23.493Z,18.10
2022-08-01T01:23:04.261Z,18.20
2022-08-01T01:25:42.803Z,18.20
2022-08-01T01:28:28.076Z,18.20
2022-08-01T01:30:57.416Z,18.20
2022-08-01T01:33:29.484Z,18.20
2022-08-01T01:36:02.855Z,18.20
2022-08-01T01:38:35.129Z,18.10
2022-08-01T01:41:05.139Z,18.20
2022-08-01T01:43:34.174Z,18.30
2022-08-01T01:46:03.689Z,18.20
2022-08-01T01:48:31.935Z,18.20
2022-08-01T01:51:00.084Z,18.20
2022-08-01T01:53:29.562Z,18.10
2022-08-01T01:55:59.916Z,18.10
2022-08-01T01:58:28.688Z,18.10
2022-08-01T02:00:59.796Z,18.20
2022-08-01T02:03:50.060Z,18.10
2022-08-01T02:06:23.831Z,18.10
2022-08-01T02:08:55.640Z,18.10
2022-08-01T02:11:23.202Z,18.10
2022-08-01T02:14:02.467Z,18.10
2022-08-01T02:16:34.588Z,18.10
2022-08-01T02:19:02.040Z,18.10
2022-08-01T02:21:38.319Z,18.10
2022-08-01T02:24:15.313Z,18.10
2022-08-01T02:26:48.595Z,18.00
2022-08-01T02:29:22.516Z,18.00
2022-08-01T02:31:52.213Z,18.00
2022-08-01T02:34:22.130Z,18.10
2022-08-01T02:36:50.368Z,17.90
2022-08-01T02:39:20.384Z,18.00
2022-08-01T02:41:51.110Z,18.00
2022-08-01T02:44:32.148Z,17.90
2022-08-01T02:47:05.889Z,17.90
2022-08-01T02:49:40.012Z,17.90
2022-08-01T02:52:10.643Z,17.90
2022-08-01T02:54:38.377Z,17.90
2022-08-01T02:57:07.582Z,17.80
2022-08-01T02:59:41.393Z,17.80
2022-08-01T03:02:10.826Z,17.80
2022-08-01T03:04:40.037Z,17.70
2022-08-01T03:07:10.007Z,17.70
2022-08-01T03:09:44.524Z,17.80
2022-08-01T03:12:25.211Z,17.80
2022-08-01T03:14:54.828Z,17.80
2022-08-01T03:17:25.619Z,17.70
2022-08-01T03:19:54.170Z,17.70
2022-08-01T03:22:23.982Z,17.80
2022-08-01T03:24:54.037Z,17.70
2022-08-01T03:27:22.330Z,17.70
2022-08-01T03:29:51.388Z,17.70
2022-08-01T03:32:20.164Z,17.70
2022-08-01T03:34:47.596Z,17.80
2022-08-01T03:37:25.276Z,17.70
2022-08-01T03:40:06.010Z,17.70
2022-08-01T03:42:37.772Z,17.70
2022-08-01T03:45:20.340Z,17.70
2022-08-01T03:47:49.949Z,17.70
2022-08-01T03:50:22.623Z,17.80
2022-08-01T03:52:52.455Z,17.70
2022-08-01T03:55:21.344Z,17.70
2022-08-01T03:57:49.499Z,17.80
2022-08-01T04:00:19.488Z,17.70
2022-08-01T04:02:48.637Z,17.70
2022-08-01T04:05:17.051Z,17.70
2022-08-01T04:07:48.932Z,17.70
2022-08-01T04:10:15.811Z,17.70
2022-08-01T04:12:42.794Z,17.70
2022-08-01T04:15:10.074Z,17.70
2022-08-01T04:17:37.149Z,17.70
2022-08-01T04:20:04.315Z,17.70
2022-08-01T04:22:31.884Z,17.70
2022-08-01T04:25:10.348Z,17.70
2022-08-01T04:27:50.427Z,17.80
2022-08-01T04:30:31.384Z,17.70
2022-08-01T04:33:12.937Z,17.80
2022-08-01T04:36:01.449Z,17.80
2022-08-01T04:38:34.930Z,17.80
2022-08-01T04:41:08.940Z,17.90
2022-08-01T04:43:40.718Z,17.90
2022-08-01T04:46:13.108Z,17.90
2022-08-01T04:48:41.351Z,17.90
2022-08-01T04:51:16.441Z,17.80
2022-08-01T04:53:46.956Z,17.90
2022-08-01T04:56:14.361Z,17.90
2022-08-01T04:58:42.227Z,18.00
2022-08-01T05:01:10.445Z,17.90
2022-08-01T05:03:39.092Z,17.90
2022-08-01T05:06:06.888Z,17.90
2022-08-01T05:08:33.819Z,17.90
2022-08-01T05:11:02.264Z,17.90
2022-08-01T05:13:29.243Z,17.90
2022-08-01T05:15:56.481Z,18.00
2022-08-01T05:18:28.646Z,17.90
2022-08-01T05:20:56.789Z,18.00
2022-08-01T05:23:42.559Z,18.10
2022-08-01T05:26:14.736Z,18.10
2022-08-01T05:28:43.363Z,18.20
2022-08-01T05:31:10.745Z,18.30
2022-08-01T05:33:38.198Z,18.30
2022-08-01T05:36:06.369Z,18.30
2022-08-01T05:38:33.483Z,18.30
2022-08-01T05:41:00.354Z,18.40
2022-08-01T05:43:29.104Z,18.40
2022-08-01T05:45:56.517Z,18.30
2022-08-01T05:48:23.430Z,18.30
2022-08-01T05:50:51.249Z,18.30
2022-08-01T05:53:19.824Z,18.30
2022-08-01T05:55:46.851Z,18.40
2022-08-01T05:58:13.718Z,18.40
2022-08-01T06:00:40.916Z,18.40
2022-08-01T06:03:07.782Z,18.50
2022-08-01T06:05:34.583Z,18.40
2022-08-01T06:08:01.455Z,18.50
2022-08-01T06:10:28.313Z,18.60
2022-08-01T06:12:55.233Z,18.70
2022-08-01T06:15:22.040Z,18.60
2022-08-01T06:17:49.078Z,18.60
2022-08-01T06:20:16.606Z,18.60
2022-08-01T06:22:43.644Z,18.40
2022-08-01T06:25:11.320Z,18.30
2022-08-01T06:27:38.626Z,18.30
2022-08-01T06:30:08.599Z,18.10
2022-08-01T06:32:35.641Z,18.00
2022-08-01T06:35:02.719Z,18.00
2022-08-01T06:37:33.540Z,18.00
2022-08-01T06:40:05.893Z,17.90
2022-08-01T06:42:36.826Z,17.90
2022-08-01T06:45:08.587Z,18.00
2022-08-01T06:47:35.977Z,18.10
2022-08-01T06:50:03.484Z,18.40
2022-08-01T06:52:30.602Z,18.60
2022-08-01T06:54:57.590Z,18.70
2022-08-01T06:57:24.866Z,18.60
2022-08-01T06:59:54.663Z,18.70
2022-08-01T07:02:22.036Z,18.70
2022-08-01T07:04:49.460Z,18.70
2022-08-01T07:07:16.612Z,18.60
2022-08-01T07:09:43.951Z,18.70
2022-08-01T07:12:11.603Z,18.70
2022-08-01T07:14:38.691Z,19.00
2022-08-01T07:17:05.803Z,18.80
2022-08-01T07:19:32.830Z,19.00
2022-08-01T07:21:59.683Z,19.20
2022-08-01T07:24:26.913Z,19.40
2022-08-01T07:26:56.044Z,19.60
2022-08-01T07:29:26.500Z,19.80
2022-08-01T07:31:54.321Z,19.90
2022-08-01T07:34:21.830Z,20.00
2022-08-01T07:36:48.731Z,20.10
2022-08-01T07:39:15.575Z,20.00
2022-08-01T07:41:53.340Z,20.50
2022-08-01T07:44:29.466Z,20.70
2022-08-01T07:46:56.316Z,21.00
2022-08-01T07:49:23.241Z,20.90
2022-08-01T07:52:03.185Z,20.50
2022-08-01T07:54:34.810Z,20.20
2022-08-01T07:57:03.438Z,20.00
2022-08-01T07:59:30.661Z,20.00
2022-08-01T08:01:57.561Z,20.00
2022-08-01T08:04:24.516Z,19.90
2022-08-01T08:06:51.822Z,19.80
2022-08-01T08:09:18.666Z,19.80
2022-08-01T08:11:48.034Z,19.80
2022-08-01T08:14:19.358Z,19.70
2022-08-01T08:16:46.787Z,19.60
2022-08-01T08:19:13.819Z,19.60
2022-08-01T08:21:41.471Z,19.60
2022-08-01T08:24:26.801Z,19.60
2022-08-01T08:26:59.520Z,19.60
2022-08-01T08:29:28.051Z,19.60
2022-08-01T08:31:58.726Z,19.70
2022-08-01T08:34:27.099Z,19.80
2022-08-01T08:36:56.274Z,19.90
2022-08-01T08:39:24.051Z,19.90
2022-08-01T08:41:50.973Z,20.10
2022-08-01T08:44:19.078Z,20.30
2022-08-01T08:46:49.176Z,20.50
2022-08-01T08:49:21.906Z,20.60
2022-08-01T08:51:50.975Z,20.30
2022-08-01T08:54:20.687Z,20.40
2022-08-01T08:56:48.492Z,20.60
2022-08-01T08:59:15.613Z,20.80
2022-08-01T09:01:43.461Z,20.80
2022-08-01T09:04:11.131Z,20.90
2022-08-01T09:06:38.382Z,21.10
2022-08-01T09:09:06.487Z,21.40
2022-08-01T09:11:34.297Z,21.40
2022-08-01T09:14:08.696Z,21.10
2022-08-01T09:16:36.616Z,21.30
2022-08-01T09:19:16.026Z,21.80
2022-08-01T09:22:04.639Z,22.40
2022-08-01T09:24:33.518Z,22.60
2022-08-01T09:27:03.341Z,22.60
2022-08-01T09:29:38.308Z,22.30
2022-08-01T09:32:13.887Z,21.90
2022-08-01T09:34:41.048Z,21.70
2022-08-01T09:37:08.300Z,21.90
2022-08-01T09:39:41.202Z,22.20
2022-08-01T09:42:28.645Z,21.50
2022-08-01T09:44:56.596Z,22.70
2022-08-01T09:47:37.277Z,23.10
2022-08-01T09:50:10.733Z,22.50
2022-08-01T09:52:39.020Z,21.90
2022-08-01T09:55:08.887Z,21.70
2022-08-01T09:57:36.357Z,21.70
2022-08-01T10:00:04.872Z,21.90
2022-08-01T10:02:44.270Z,22.20
2022-08-01T10:05:18.898Z,22.30
2022-08-01T10:08:07.963Z,22.70
2022-08-01T10:10:35.219Z,22.80
2022-08-01T10:13:05.167Z,22.90
2022-08-01T10:15:36.477Z,22.60
2022-08-01T10:18:16.781Z,21.80
2022-08-01T10:20:56.362Z,22.00
2022-08-01T10:23:40.514Z,22.20
2022-08-01T10:26:09.410Z,22.30
2022-08-01T10:28:38.615Z,22.60
2022-08-01T10:31:13.174Z,22.50
2022-08-01T10:33:52.427Z,22.70
2022-08-01T10:36:25.589Z,23.10
2022-08-01T10:38:55.065Z,23.30
2022-08-01T10:41:22.704Z,23.30
2022-08-01T10:43:49.578Z,23.40
2022-08-01T10:46:16.963Z,23.80
2022-08-01T10:48:53.126Z,23.80
2022-08-01T10:51:22.405Z,24.20
2022-08-01T10:54:13.691Z,24.90
2022-08-01T10:56:45.231Z,24.80
2022-08-01T10:59:29.121Z,24.60
2022-08-01T11:02:07.790Z,24.40
2022-08-01T11:04:55.629Z,24.90
2022-08-01T11:07:35.395Z,24.80
2022-08-01T11:10:14.808Z,23.50
2022-08-01T11:12:43.976Z,23.20
2022-08-01T11:15:11.081Z,23.20
2022-08-01T11:17:42.131Z,23.20
2022-08-01T11:20:23.768Z,23.30
2022-08-01T11:23:00.684Z,24.00
2022-08-01T11:26:05.987Z,24.50
2022-08-01T11:28:34.713Z,24.90
2022-08-01T11:31:11.075Z,24.60
2022-08-01T11:33:42.323Z,24.50
2022-08-01T11:36:22.220Z,24.20
2022-08-01T11:39:01.005Z,23.70
2022-08-01T11:41:38.630Z,23.40
2022-08-01T11:44:18.985Z,23.30
2022-08-01T11:47:09.752Z,23.70
2022-08-01T11:49:49.738Z,24.10
2022-08-01T11:52:25.017Z,24.10
2022-08-01T11:54:55.093Z,23.70
2022-08-01T11:57:34.281Z,23.60
2022-08-01T12:00:16.519Z,23.40
2022-08-01T12:02:46.219Z,23.50
2022-08-01T12:05:17.757Z,23.90
2022-08-01T12:07:46.829Z,24.10
2022-08-01T12:10:14.981Z,24.00
2022-08-01T12:12:49.510Z,24.20
2022-08-01T12:15:17.369Z,24.40
2022-08-01T12:17:58.261Z,24.30
2022-08-01T12:20:32.273Z,24.20
2022-08-01T12:23:02.489Z,24.30
2022-08-01T12:25:30.176Z,24.50
2022-08-01T12:28:01.583Z,24.70
2022-08-01T12:30:31.681Z,24.90
2022-08-01T12:32:59.000Z,24.50
2022-08-01T12:35:27.267Z,24.60
2022-08-01T12:37:59.852Z,24.10
2022-08-01T12:40:34.812Z,23.90
2022-08-01T12:43:06.379Z,23.80
2022-08-01T12:45:56.411Z,24.10
2022-08-01T12:48:25.724Z,23.80
2022-08-01T12:50:53.518Z,23.70
2022-08-01T12:53:21.789Z,23.70
2022-08-01T12:55:58.430Z,23.80
2022-08-01T12:58:35.871Z,23.90
2022-08-01T13:01:11.416Z,24.00
2022-08-01T13:03:38.896Z,23.70
2022-08-01T13:06:15.908Z,23.70
2022-08-01T13:08:44.032Z,23.50
2022-08-01T13:11:17.296Z,23.50
2022-08-01T13:13:49.718Z,23.60
2022-08-01T13:16:30.180Z,23.70
2022-08-01T13:19:01.703Z,23.50
2022-08-01T13:21:52.022Z,23.40
2022-08-01T13:24:29.960Z,23.60
2022-08-01T13:27:05.065Z,23.60
2022-08-01T13:29:42.139Z,23.70
2022-08-01T13:32:29.236Z,23.70
2022-08-01T13:35:05.790Z,23.70
2022-08-01T13:37:33.234Z,23.70
2022-08-01T13:40:00.559Z,23.70
2022-08-01T13:42:27.673Z,23.60
2022-08-01T13:44:54.696Z,23.30
2022-08-01T13:47:31.417Z,23.50
2022-08-01T13:50:04.182Z,23.30
2022-08-01T13:52:31.923Z,23.80
2022-08-01T13:55:00.187Z,23.70
2022-08-01T13:57:36.695Z,23.70
2022-08-01T14:00:07.027Z,23.60
2022-08-01T14:02:39.035Z,23.60
2022-08-01T14:05:06.579Z,23.80
2022-08-01T14:07:34.888Z,23.70
2022-08-01T14:10:05.174Z,23.70
2022-08-01T14:12:51.016Z,23.70
2022-08-01T14:15:38.147Z,23.80
2022-08-01T14:18:07.190Z,23.70
2022-08-01T14:20:35.818Z,23.30
2022-08-01T14:23:03.059Z,23.20
2022-08-01T14:26:03.570Z,23.10
2022-08-01T14:28:17.156Z,23.10
2022-08-01T14:30:44.313Z,22.70
2022-08-01T14:33:11.982Z,22.80
2022-08-01T14:36:02.156Z,22.80
2022-08-01T14:38:31.749Z,23.00
2022-08-01T14:41:00.579Z,23.20
2022-08-01T14:43:32.743Z,23.40
2022-08-01T14:46:01.100Z,23.40
2022-08-01T14:48:27.974Z,23.50
2022-08-01T14:50:57.133Z,23.40
2022-08-01T14:53:24.030Z,23.50
2022-08-01T14:55:50.864Z,23.00
2022-08-01T14:58:17.644Z,23.30
2022-08-01T15:00:44.535Z,23.20
2022-08-01T15:03:11.497Z,23.10
2022-08-01T15:05:38.812Z,23.20
2022-08-01T15:08:07.604Z,23.50
2022-08-01T15:10:34.702Z,23.90
2022-08-01T15:13:02.644Z,24.10
2022-08-01T15:15:30.186Z,23.90
2022-08-01T15:17:57.351Z,23.80
2022-08-01T15:20:24.266Z,23.60
2022-08-01T15:22:51.108Z,23.40
2022-08-01T15:25:17.886Z,23.10
2022-08-01T15:27:44.850Z,22.80
2022-08-01T15:30:12.408Z,22.60
2022-08-01T15:32:39.419Z,22.70
2022-08-01T15:35:07.462Z,22.80
2022-08-01T15:37:35.195Z,23.20
2022-08-01T15:40:04.886Z,23.50
2022-08-01T15:42:31.774Z,23.60
2022-08-01T15:44:58.579Z,23.70
2022-08-01T15:47:25.615Z,23.80
2022-08-01T15:49:53.669Z,23.90
2022-08-01T15:52:21.836Z,24.00
2022-08-01T15:54:50.508Z,24.10
2022-08-01T15:57:19.933Z,23.90
2022-08-01T15:59:46.861Z,23.80
2022-08-01T16:02:14.630Z,23.70
2022-08-01T16:04:41.491Z,23.60
2022-08-01T16:07:08.506Z,23.50
2022-08-01T16:09:35.727Z,23.60
2022-08-01T16:12:02.947Z,23.90
2022-08-01T16:14:29.828Z,24.40
2022-08-01T16:16:56.959Z,24.30
2022-08-01T16:19:24.319Z,24.10
2022-08-01T16:21:52.429Z,23.80
2022-08-01T16:24:19.908Z,23.50
2022-08-01T16:26:47.308Z,23.70
2022-08-01T16:29:14.448Z,24.30
2022-08-01T16:31:51.872Z,25.40
2022-08-01T16:34:28.619Z,26.20
2022-08-01T16:36:55.980Z,26.20
2022-08-01T16:39:23.739Z,25.90
2022-08-01T16:41:55.052Z,26.10
2022-08-01T16:44:28.639Z,26.20
2022-08-01T16:47:04.132Z,26.70
2022-08-01T16:49:32.192Z,27.00
2022-08-01T16:51:59.536Z,27.10
2022-08-01T16:54:26.956Z,27.20
2022-08-01T16:57:07.643Z,27.30
2022-08-01T16:59:40.792Z,27.70
2022-08-01T17:02:10.970Z,27.60
2022-08-01T17:04:38.093Z,26.40
2022-08-01T17:07:05.528Z,25.40
2022-08-01T17:09:33.015Z,24.40
2022-08-01T17:12:00.324Z,23.90
2022-08-01T17:14:28.679Z,23.40
2022-08-01T17:16:55.640Z,23.00
2022-08-01T17:19:32.520Z,22.60
2022-08-01T17:22:00.036Z,22.50
2022-08-01T17:24:27.021Z,22.50
2022-08-01T17:26:54.287Z,22.70
2022-08-01T17:29:21.329Z,22.80
2022-08-01T17:31:48.348Z,22.80
2022-08-01T17:34:15.622Z,22.80
2022-08-01T17:36:42.533Z,22.90
2022-08-01T17:39:09.979Z,22.80
2022-08-01T17:41:37.045Z,22.80
2022-08-01T17:44:04.474Z,22.70
2022-08-01T17:46:31.590Z,22.70
2022-08-01T17:49:01.938Z,22.60
2022-08-01T17:51:30.552Z,22.30
2022-08-01T17:53:58.039Z,21.90
2022-08-01T17:56:26.312Z,21.80
2022-08-01T17:58:53.673Z,21.70
2022-08-01T18:01:21.099Z,21.90
2022-08-01T18:03:48.539Z,22.20
2022-08-01T18:06:19.962Z,22.80
2022-08-01T18:08:55.594Z,23.30
2022-08-01T18:11:24.752Z,23.80
2022-08-01T18:13:55.353Z,24.00
2022-08-01T18:16:22.338Z,24.10
2022-08-01T18:18:49.294Z,23.90
2022-08-01T18:21:16.683Z,23.60
2022-08-01T18:23:44.334Z,23.50
2022-08-01T18:26:20.689Z,23.40
2022-08-01T18:28:48.562Z,23.10
2022-08-01T18:31:17.896Z,22.90
2022-08-01T18:33:44.984Z,22.80
2022-08-01T18:36:32.409Z,22.60
2022-08-01T18:39:01.760Z,22.20
2022-08-01T18:41:28.819Z,21.90
2022-08-01T18:44:05.397Z,21.50
2022-08-01T18:46:37.470Z,21.00
2022-08-01T18:49:06.001Z,20.40
2022-08-01T18:51:33.317Z,20.00
2022-08-01T18:54:00.389Z,19.60
2022-08-01T18:56:27.395Z,19.30
2022-08-01T18:58:54.885Z,19.10
2022-08-01T19:01:22.594Z,19.00
2022-08-01T19:03:49.727Z,18.80
2022-08-01T19:06:16.600Z,18.60
2022-08-01T19:08:44.741Z,18.50
2022-08-01T19:11:11.813Z,18.40
2022-08-01T19:13:38.961Z,18.30
2022-08-01T19:16:05.945Z,18.30
2022-08-01T19:18:33.763Z,18.30
2022-08-01T19:21:04.448Z,18.30
2022-08-01T19:23:49.906Z,18.30
2022-08-01T19:26:19.342Z,18.30
2022-08-01T19:28:47.480Z,18.30
2022-08-01T19:31:15.390Z,18.40
2022-08-01T19:33:43.292Z,18.40
2022-08-01T19:36:17.180Z,18.50
2022-08-01T19:38:44.853Z,18.50
2022-08-01T19:41:13.857Z,18.50
2022-08-01T19:43:46.167Z,18.40
2022-08-01T19:46:17.476Z,18.40
2022-08-01T19:48:49.848Z,18.60
2022-08-01T19:51:22.279Z,18.60
2022-08-01T19:53:55.563Z,18.50
2022-08-01T19:56:25.908Z,18.40
2022-08-01T19:58:59.454Z,18.40
2022-08-01T20:01:27.649Z,18.40
2022-08-01T20:03:55.953Z,18.20
2022-08-01T20:06:24.589Z,18.20
2022-08-01T20:08:54.728Z,18.20
2022-08-01T20:11:22.274Z,18.10
2022-08-01T20:13:51.217Z,18.00
2022-08-01T20:16:18.412Z,18.20
2022-08-01T20:18:45.318Z,18.10
2022-08-01T20:21:13.165Z,18.10
2022-08-01T20:23:41.069Z,18.00
2022-08-01T20:26:09.874Z,17.90
2022-08-01T20:28:41.764Z,17.90
2022-08-01T20:31:10.186Z,17.80
2022-08-01T20:33:43.436Z,17.70
2022-08-01T20:36:12.236Z,17.50
2022-08-01T20:38:54.906Z,17.30
2022-08-01T20:41:26.531Z,17.10
2022-08-01T20:43:55.934Z,17.00
2022-08-01T20:46:27.541Z,16.90
2022-08-01T20:48:55.907Z,16.70
2022-08-01T20:51:28.034Z,16.60
2022-08-01T20:53:57.493Z,16.40
2022-08-01T20:56:39.393Z,16.30
2022-08-01T20:59:06.616Z,16.20
2022-08-01T21:01:44.627Z,16.10
2022-08-01T21:04:32.557Z,15.90
2022-08-01T21:07:09.713Z,15.80
2022-08-01T21:09:39.650Z,15.70
2022-08-01T21:12:11.808Z,15.70
2022-08-01T21:14:53.486Z,15.50
2022-08-01T21:17:36.807Z,15.40
2022-08-01T21:20:08.143Z,15.20
2022-08-01T21:23:00.191Z,15.10
2022-08-01T21:25:33.828Z,15.00
2022-08-01T21:28:02.415Z,15.00
2022-08-01T21:30:34.961Z,15.00
2022-08-01T21:33:04.886Z,14.80
2022-08-01T21:35:33.152Z,14.70
2022-08-01T21:38:03.035Z,14.70
2022-08-01T21:40:32.587Z,14.60
2022-08-01T21:43:01.769Z,14.50
2022-08-01T21:45:29.906Z,14.50
2022-08-01T21:47:58.479Z,14.50
2022-08-01T21:50:25.655Z,14.40
2022-08-01T21:53:05.060Z,14.40
2022-08-01T21:55:51.562Z,14.30
2022-08-01T21:58:47.243Z,14.20
2022-08-01T22:01:24.188Z,14.20
2022-08-01T22:03:53.699Z,14.30
2022-08-01T22:06:22.051Z,14.40
2022-08-01T22:09:03.257Z,14.40
2022-08-01T22:11:32.922Z,14.40
2022-08-01T22:14:06.210Z,14.50
2022-08-01T22:16:40.318Z,14.40
2022-08-01T22:19:10.139Z,14.30
2022-08-01T22:21:57.326Z,14.30
2022-08-01T22:24:25.326Z,14.30
2022-08-01T22:26:55.524Z,14.30
2022-08-01T22:29:22.643Z,14.30
2022-08-01T22:31:51.787Z,14.20
2022-08-01T22:34:19.421Z,14.10
2022-08-01T22:36:51.997Z,14.00
2022-08-01T22:39:20.038Z,13.90
2022-08-01T22:42:01.312Z,13.90
2022-08-01T22:44:35.295Z,13.80
2022-08-01T22:47:09.436Z,13.70
2022-08-01T22:49:47.181Z,13.60
2022-08-01T22:52:27.184Z,13.50
2022-08-01T22:55:07.375Z,13.30
2022-08-01T22:57:50.175Z,13.20
2022-08-01T23:00:18.523Z,13.10
2022-08-01T23:02:54.837Z,13.00
2022-08-01T23:05:24.342Z,13.00
2022-08-01T23:07:53.901Z,13.10
2022-08-01T23:10:24.267Z,13.00
2022-08-01T23:12:52.462Z,12.90
2022-08-01T23:15:20.718Z,12.80
2022-08-01T23:17:48.733Z,12.80
2022-08-01T23:20:17.057Z,12.70
2022-08-01T23:22:44.754Z,12.60
2022-08-01T23:25:14.776Z,12.50
2022-08-01T23:27:51.597Z,12.50
2022-08-01T23:30:33.198Z,12.50
2022-08-01T23:33:00.129Z,12.30
2022-08-01T23:35:28.205Z,12.40
2022-08-01T23:37:58.581Z,12.40
2022-08-01T23:40:29.340Z,12.40
2022-08-01T23:42:56.373Z,12.40
2022-08-01T23:45:23.665Z,12.40
2022-08-01T23:47:51.074Z,12.30
2022-08-01T23:50:17.899Z,12.20
2022-08-01T23:52:48.509Z,12.10
2022-08-01T23:55:19.385Z,12.10
2022-08-01T23:57:51.470Z,12.00
